sensor_id;sensor_type;location;lat;lon;timestamp;temperature;humidity
5196;DHT22;2617;51.006;12.436;2022-12-11T00:03:40;-2.50;99.90
5196;DHT22;2617;51.006;12.436;2022-12-11T00:08:42;-2.50;99.90
5196;DHT22;2617;51.006;12.436;2022-12-11T00:13:43;-2.60;99.90
5196;DHT22;2617;51.006;12.436;2022-12-11T00:18:45;-2.60;99.90
5196;DHT22;2617;51.006;12.436;2022-12-11T00:23:47;-2.70;99.90
5196;DHT22;2617;51.006;12.436;2022-12-11T00:28:51;-2.70;99.90
5196;DHT22;2617;51.006;12.436;2022-12-11T00:33:51;-2.60;99.90
5196;DHT22;2617;51.006;12.436;2022-12-11T00:38:54;-2.60;99.90
5196;DHT22;2617;51.006;12.436;2022-12-11T00:43:55;-2.60;99.90
5196;DHT22;2617;51.006;12.436;2022-12-11T00:48:57;-2.70;99.90
5196;DHT22;2617;51.006;12.436;2022-12-11T00:53:59;-2.60;99.90
5196;DHT22;2617;51.006;12.436;2022-12-11T00:59:01;-2.60;99.90
5196;DHT22;2617;51.006;12.436;2022-12-11T01:04:03;-2.60;99.90
5196;DHT22;2617;51.006;12.436;2022-12-11T01:09:04;-2.60;99.90
5196;DHT22;2617;51.006;12.436;2022-12-11T01:14:12;-2.60;99.90
5196;DHT22;2617;51.006;12.436;2022-12-11T01:19:13;-2.70;99.90
5196;DHT22;2617;51.006;12.436;2022-12-11T01:24:16;-2.60;99.90
5196;DHT22;2617;51.006;12.436;2022-12-11T01:29:18;-2.60;99.90
5196;DHT22;2617;51.006;12.436;2022-12-11T01:34:19;-2.60;99.90
5196;DHT22;2617;51.006;12.436;2022-12-11T01:39:22;-2.60;99.90
5196;DHT22;2617;51.006;12.436;2022-12-11T01:49:56;-2.60;99.90
5196;DHT22;2617;51.006;12.436;2022-12-11T01:54:58;-2.60;99.90
5196;DHT22;2617;51.006;12.436;2022-12-11T02:00:00;-2.70;99.90
5196;DHT22;2617;51.006;12.436;2022-12-11T02:05:03;-2.70;99.90
5196;DHT22;2617;51.006;12.436;2022-12-11T02:10:06;-2.80;99.90
5196;DHT22;2617;51.006;12.436;2022-12-11T02:20:47;-2.80;99.90
5196;DHT22;2617;51.006;12.436;2022-12-11T02:25:56;-2.80;99.90
5196;DHT22;2617;51.006;12.436;2022-12-11T02:30:56;-2.70;99.90
5196;DHT22;2617;51.006;12.436;2022-12-11T02:35:56;-2.70;99.90
5196;DHT22;2617;51.006;12.436;2022-12-11T02:40:58;-2.80;99.90
5196;DHT22;2617;51.006;12.436;2022-12-11T02:46:00;-2.80;99.90
5196;DHT22;2617;51.006;12.436;2022-12-11T02:51:02;-2.80;99.90
5196;DHT22;2617;51.006;12.436;2022-12-11T02:56:09;-2.90;99.90
5196;DHT22;2617;51.006;12.436;2022-12-11T03:01:09;-2.90;99.90
5196;DHT22;2617;51.006;12.436;2022-12-11T03:06:12;-3.00;99.90
5196;DHT22;2617;51.006;12.436;2022-12-11T03:11:13;-3.00;99.90
5196;DHT22;2617;51.006;12.436;2022-12-11T03:21:51;-3.00;99.90
5196;DHT22;2617;51.006;12.436;2022-12-11T03:26:54;-3.00;99.90
5196;DHT22;2617;51.006;12.436;2022-12-11T03:31:58;-3.00;99.90
5196;DHT22;2617;51.006;12.436;2022-12-11T03:36:59;-3.10;99.90
5196;DHT22;2617;51.006;12.436;2022-12-11T03:42:02;-3.00;99.90
5196;DHT22;2617;51.006;12.436;2022-12-11T03:47:05;-3.00;99.90
5196;DHT22;2617;51.006;12.436;2022-12-11T03:52:06;-3.00;99.90
5196;DHT22;2617;51.006;12.436;2022-12-11T03:57:09;-3.10;99.90
5196;DHT22;2617;51.006;12.436;2022-12-11T04:02:11;-3.10;99.90
5196;DHT22;2617;51.006;12.436;2022-12-11T04:07:13;-3.10;99.90
5196;DHT22;2617;51.006;12.436;2022-12-11T04:12:15;-3.10;99.90
5196;DHT22;2617;51.006;12.436;2022-12-11T04:17:17;-3.10;99.90
5196;DHT22;2617;51.006;12.436;2022-12-11T04:22:19;-3.10;99.90
5196;DHT22;2617;51.006;12.436;2022-12-11T04:27:27;-3.10;99.90
5196;DHT22;2617;51.006;12.436;2022-12-11T04:32:34;-3.20;99.90
5196;DHT22;2617;51.006;12.436;2022-12-11T04:37:37;-3.20;99.90
5196;DHT22;2617;51.006;12.436;2022-12-11T04:42:38;-3.20;99.90
5196;DHT22;2617;51.006;12.436;2022-12-11T04:47:39;-3.20;99.90
5196;DHT22;2617;51.006;12.436;2022-12-11T04:52:41;-3.20;99.90
5196;DHT22;2617;51.006;12.436;2022-12-11T04:57:43;-3.20;99.90
5196;DHT22;2617;51.006;12.436;2022-12-11T05:02:45;-3.20;99.90
5196;DHT22;2617;51.006;12.436;2022-12-11T05:07:46;-3.20;99.90
5196;DHT22;2617;51.006;12.436;2022-12-11T05:12:48;-3.20;99.90
5196;DHT22;2617;51.006;12.436;2022-12-11T05:17:50;-3.20;99.90
5196;DHT22;2617;51.006;12.436;2022-12-11T05:22:51;-3.20;99.90
5196;DHT22;2617;51.006;12.436;2022-12-11T05:27:53;-3.30;99.90
5196;DHT22;2617;51.006;12.436;2022-12-11T05:32:55;-3.30;99.90
5196;DHT22;2617;51.006;12.436;2022-12-11T05:37:57;-3.30;99.90
5196;DHT22;2617;51.006;12.436;2022-12-11T05:42:59;-3.30;99.90
5196;DHT22;2617;51.006;12.436;2022-12-11T05:48:01;-3.30;99.90
5196;DHT22;2617;51.006;12.436;2022-12-11T05:53:04;-3.30;99.90
5196;DHT22;2617;51.006;12.436;2022-12-11T05:58:06;-3.30;99.90
5196;DHT22;2617;51.006;12.436;2022-12-11T06:03:07;-3.40;99.90
5196;DHT22;2617;51.006;12.436;2022-12-11T06:08:09;-3.40;99.90
5196;DHT22;2617;51.006;12.436;2022-12-11T06:13:11;-3.40;99.90
5196;DHT22;2617;51.006;12.436;2022-12-11T06:18:13;-3.50;99.90
5196;DHT22;2617;51.006;12.436;2022-12-11T06:23:14;-3.50;99.90
5196;DHT22;2617;51.006;12.436;2022-12-11T06:28:16;-3.50;99.90
5196;DHT22;2617;51.006;12.436;2022-12-11T06:33:18;-3.40;99.90
5196;DHT22;2617;51.006;12.436;2022-12-11T06:38:20;-3.50;99.90
5196;DHT22;2617;51.006;12.436;2022-12-11T06:43:23;-3.50;99.90
5196;DHT22;2617;51.006;12.436;2022-12-11T06:48:25;-3.50;99.90
5196;DHT22;2617;51.006;12.436;2022-12-11T06:53:27;-3.50;99.90
5196;DHT22;2617;51.006;12.436;2022-12-11T06:58:30;-3.50;99.90
5196;DHT22;2617;51.006;12.436;2022-12-11T07:03:31;-3.50;99.90
5196;DHT22;2617;51.006;12.436;2022-12-11T07:08:33;-3.50;99.90
5196;DHT22;2617;51.006;12.436;2022-12-11T07:13:36;-3.60;99.90
5196;DHT22;2617;51.006;12.436;2022-12-11T07:18:38;-3.50;99.90
5196;DHT22;2617;51.006;12.436;2022-12-11T07:23:39;-3.60;99.90
5196;DHT22;2617;51.006;12.436;2022-12-11T07:28:41;-3.50;99.90
5196;DHT22;2617;51.006;12.436;2022-12-11T07:33:43;-3.50;99.90
5196;DHT22;2617;51.006;12.436;2022-12-11T07:38:44;-3.40;99.90
5196;DHT22;2617;51.006;12.436;2022-12-11T07:43:46;-3.30;99.90
5196;DHT22;2617;51.006;12.436;2022-12-11T07:48:48;-3.30;99.90
5196;DHT22;2617;51.006;12.436;2022-12-11T07:53:51;-3.20;99.90
5196;DHT22;2617;51.006;12.436;2022-12-11T07:58:53;-3.10;99.90
5196;DHT22;2617;51.006;12.436;2022-12-11T08:03:55;-3.10;99.90
5196;DHT22;2617;51.006;12.436;2022-12-11T08:08:58;-2.90;99.90
5196;DHT22;2617;51.006;12.436;2022-12-11T08:13:59;-2.90;99.90
5196;DHT22;2617;51.006;12.436;2022-12-11T08:19:01;-2.90;99.90
5196;DHT22;2617;51.006;12.436;2022-12-11T08:24:03;-2.80;99.90
5196;DHT22;2617;51.006;12.436;2022-12-11T08:29:06;-2.70;99.90
5196;DHT22;2617;51.006;12.436;2022-12-11T08:34:07;-2.70;99.90
5196;DHT22;2617;51.006;12.436;2022-12-11T08:39:10;-2.60;99.90
5196;DHT22;2617;51.006;12.436;2022-12-11T08:44:12;-2.60;99.90
5196;DHT22;2617;51.006;12.436;2022-12-11T08:49:13;-2.50;99.90
5196;DHT22;2617;51.006;12.436;2022-12-11T08:54:15;-2.40;99.90
5196;DHT22;2617;51.006;12.436;2022-12-11T08:59:17;-2.20;99.90
5196;DHT22;2617;51.006;12.436;2022-12-11T09:04:19;-2.20;99.90
5196;DHT22;2617;51.006;12.436;2022-12-11T09:09:21;-2.20;99.90
5196;DHT22;2617;51.006;12.436;2022-12-11T09:14:23;-2.20;99.90
5196;DHT22;2617;51.006;12.436;2022-12-11T09:19:25;-2.20;99.90
5196;DHT22;2617;51.006;12.436;2022-12-11T09:24:27;-2.20;99.90
5196;DHT22;2617;51.006;12.436;2022-12-11T09:29:29;-1.90;99.90
5196;DHT22;2617;51.006;12.436;2022-12-11T09:34:31;-1.90;99.90
5196;DHT22;2617;51.006;12.436;2022-12-11T09:39:33;-1.80;99.90
5196;DHT22;2617;51.006;12.436;2022-12-11T09:44:37;-1.90;99.90
5196;DHT22;2617;51.006;12.436;2022-12-11T09:49:40;-2.00;99.90
5196;DHT22;2617;51.006;12.436;2022-12-11T09:54:43;-2.00;99.90
5196;DHT22;2617;51.006;12.436;2022-12-11T09:59:56;-1.90;99.90
5196;DHT22;2617;51.006;12.436;2022-12-11T10:10:24;-2.10;99.90
5196;DHT22;2617;51.006;12.436;2022-12-11T10:15:33;-2.10;99.90
5196;DHT22;2617;51.006;12.436;2022-12-11T10:20:38;-2.30;99.90
5196;DHT22;2617;51.006;12.436;2022-12-11T10:25:40;-2.30;99.90
5196;DHT22;2617;51.006;12.436;2022-12-11T10:36:17;-2.10;99.90
5196;DHT22;2617;51.006;12.436;2022-12-11T10:41:18;-1.90;99.90
5196;DHT22;2617;51.006;12.436;2022-12-11T10:46:21;-1.80;99.90
5196;DHT22;2617;51.006;12.436;2022-12-11T10:51:23;-1.70;99.90
5196;DHT22;2617;51.006;12.436;2022-12-11T10:56:26;-1.50;99.90
5196;DHT22;2617;51.006;12.436;2022-12-11T11:01:28;-1.30;99.90
5196;DHT22;2617;51.006;12.436;2022-12-11T11:06:31;-1.30;99.90
5196;DHT22;2617;51.006;12.436;2022-12-11T11:11:33;-1.30;99.90
5196;DHT22;2617;51.006;12.436;2022-12-11T11:16:35;-1.20;99.90
5196;DHT22;2617;51.006;12.436;2022-12-11T11:21:36;-1.10;99.90
5196;DHT22;2617;51.006;12.436;2022-12-11T11:26:39;-1.10;99.90
5196;DHT22;2617;51.006;12.436;2022-12-11T11:31:40;-1.00;99.90
5196;DHT22;2617;51.006;12.436;2022-12-11T11:36:42;-1.00;99.90
5196;DHT22;2617;51.006;12.436;2022-12-11T11:41:59;-1.30;99.90
5196;DHT22;2617;51.006;12.436;2022-12-11T11:47:08;-1.50;99.90
5196;DHT22;2617;51.006;12.436;2022-12-11T11:52:11;-1.70;99.90
5196;DHT22;2617;51.006;12.436;2022-12-11T12:02:39;-2.10;99.90
5196;DHT22;2617;51.006;12.436;2022-12-11T12:08:03;-2.20;99.90
5196;DHT22;2617;51.006;12.436;2022-12-11T12:13:05;-2.10;99.90
5196;DHT22;2617;51.006;12.436;2022-12-11T12:18:08;-2.10;99.90
5196;DHT22;2617;51.006;12.436;2022-12-11T12:23:18;-2.10;99.90
5196;DHT22;2617;51.006;12.436;2022-12-11T12:28:21;-2.20;99.90
5196;DHT22;2617;51.006;12.436;2022-12-11T12:33:28;-2.20;99.90
5196;DHT22;2617;51.006;12.436;2022-12-11T12:38:37;-2.40;99.90
5196;DHT22;2617;51.006;12.436;2022-12-11T12:43:43;-2.40;99.90
5196;DHT22;2617;51.006;12.436;2022-12-11T12:48:43;-2.50;99.90
5196;DHT22;2617;51.006;12.436;2022-12-11T12:53:47;-2.60;99.90
5196;DHT22;2617;51.006;12.436;2022-12-11T12:58:48;-2.60;99.90
5196;DHT22;2617;51.006;12.436;2022-12-11T13:03:54;-2.70;99.90
5196;DHT22;2617;51.006;12.436;2022-12-11T13:08:54;-2.80;99.90
5196;DHT22;2617;51.006;12.436;2022-12-11T13:14:02;-2.90;99.90
5196;DHT22;2617;51.006;12.436;2022-12-11T13:19:02;-2.90;99.90
5196;DHT22;2617;51.006;12.436;2022-12-11T13:24:13;-3.00;99.90
5196;DHT22;2617;51.006;12.436;2022-12-11T13:34:30;-3.20;99.90
5196;DHT22;2617;51.006;12.436;2022-12-11T13:39:30;-3.30;99.90
5196;DHT22;2617;51.006;12.436;2022-12-11T13:44:35;-3.30;99.90
5196;DHT22;2617;51.006;12.436;2022-12-11T13:49:36;-3.20;99.90
5196;DHT22;2617;51.006;12.436;2022-12-11T13:54:45;-3.10;99.90
5196;DHT22;2617;51.006;12.436;2022-12-11T13:59:42;-3.10;99.90
5196;DHT22;2617;51.006;12.436;2022-12-11T14:04:43;-3.00;99.90
5196;DHT22;2617;51.006;12.436;2022-12-11T14:09:45;-3.10;99.90
5196;DHT22;2617;51.006;12.436;2022-12-11T14:14:50;-3.20;99.90
5196;DHT22;2617;51.006;12.436;2022-12-11T14:19:51;-3.20;99.90
5196;DHT22;2617;51.006;12.436;2022-12-11T14:24:56;-3.30;99.90
5196;DHT22;2617;51.006;12.436;2022-12-11T14:29:56;-3.30;99.90
5196;DHT22;2617;51.006;12.436;2022-12-11T14:34:58;-3.30;99.90
5196;DHT22;2617;51.006;12.436;2022-12-11T14:40:01;-3.30;99.90
5196;DHT22;2617;51.006;12.436;2022-12-11T14:45:06;-3.30;99.90
5196;DHT22;2617;51.006;12.436;2022-12-11T14:55:21;-3.40;99.90
5196;DHT22;2617;51.006;12.436;2022-12-11T15:00:25;-3.50;99.90
5196;DHT22;2617;51.006;12.436;2022-12-11T15:05:26;-3.50;99.90
5196;DHT22;2617;51.006;12.436;2022-12-11T15:10:39;-3.50;99.90
5196;DHT22;2617;51.006;12.436;2022-12-11T15:15:44;-3.50;99.90
5196;DHT22;2617;51.006;12.436;2022-12-11T15:20:48;-3.50;99.90
5196;DHT22;2617;51.006;12.436;2022-12-11T15:25:51;-3.40;99.90
5196;DHT22;2617;51.006;12.436;2022-12-11T15:30:57;-3.50;99.90
5196;DHT22;2617;51.006;12.436;2022-12-11T15:36:00;-3.50;99.90
5196;DHT22;2617;51.006;12.436;2022-12-11T15:41:01;-3.50;99.90
5196;DHT22;2617;51.006;12.436;2022-12-11T15:46:03;-3.50;99.90
5196;DHT22;2617;51.006;12.436;2022-12-11T15:51:04;-3.50;99.90
5196;DHT22;2617;51.006;12.436;2022-12-11T15:56:13;-3.50;99.90
5196;DHT22;2617;51.006;12.436;2022-12-11T16:01:15;-3.60;99.90
5196;DHT22;2617;51.006;12.436;2022-12-11T16:06:17;-3.60;99.90
5196;DHT22;2617;51.006;12.436;2022-12-11T16:11:19;-3.60;99.90
5196;DHT22;2617;51.006;12.436;2022-12-11T16:16:21;-3.70;99.90
5196;DHT22;2617;51.006;12.436;2022-12-11T16:21:23;-3.70;99.90
5196;DHT22;2617;51.006;12.436;2022-12-11T16:26:25;-3.70;99.90
5196;DHT22;2617;51.006;12.436;2022-12-11T16:31:27;-3.70;99.90
5196;DHT22;2617;51.006;12.436;2022-12-11T16:36:29;-3.80;99.90
5196;DHT22;2617;51.006;12.436;2022-12-11T16:41:31;-3.80;99.90
5196;DHT22;2617;51.006;12.436;2022-12-11T16:46:33;-3.80;99.90
5196;DHT22;2617;51.006;12.436;2022-12-11T16:51:35;-3.90;99.90
5196;DHT22;2617;51.006;12.436;2022-12-11T16:56:37;-3.90;99.90
5196;DHT22;2617;51.006;12.436;2022-12-11T17:01:39;-3.90;99.90
5196;DHT22;2617;51.006;12.436;2022-12-11T17:06:41;-3.90;99.90
5196;DHT22;2617;51.006;12.436;2022-12-11T17:11:43;-3.90;99.90
5196;DHT22;2617;51.006;12.436;2022-12-11T17:16:46;-3.90;99.90
5196;DHT22;2617;51.006;12.436;2022-12-11T17:21:48;-3.90;99.90
5196;DHT22;2617;51.006;12.436;2022-12-11T17:26:50;-4.00;99.90
5196;DHT22;2617;51.006;12.436;2022-12-11T17:31:53;-4.00;99.90
5196;DHT22;2617;51.006;12.436;2022-12-11T17:36:55;-4.00;99.90
5196;DHT22;2617;51.006;12.436;2022-12-11T17:41:56;-4.00;99.90
5196;DHT22;2617;51.006;12.436;2022-12-11T17:46:59;-4.00;99.90
5196;DHT22;2617;51.006;12.436;2022-12-11T17:52:01;-4.00;99.90
5196;DHT22;2617;51.006;12.436;2022-12-11T17:57:02;-3.90;99.90
5196;DHT22;2617;51.006;12.436;2022-12-11T18:02:04;-4.00;99.90
5196;DHT22;2617;51.006;12.436;2022-12-11T18:07:06;-4.00;99.90
5196;DHT22;2617;51.006;12.436;2022-12-11T18:12:08;-3.90;99.90
5196;DHT22;2617;51.006;12.436;2022-12-11T18:17:09;-3.90;99.90
5196;DHT22;2617;51.006;12.436;2022-12-11T18:22:11;-3.90;99.90
5196;DHT22;2617;51.006;12.436;2022-12-11T18:27:14;-4.00;99.90
5196;DHT22;2617;51.006;12.436;2022-12-11T18:32:15;-4.00;99.90
5196;DHT22;2617;51.006;12.436;2022-12-11T18:37:18;-4.00;99.90
5196;DHT22;2617;51.006;12.436;2022-12-11T18:42:20;-4.00;99.90
5196;DHT22;2617;51.006;12.436;2022-12-11T18:47:21;-4.00;99.90
5196;DHT22;2617;51.006;12.436;2022-12-11T18:52:23;-4.00;99.90
5196;DHT22;2617;51.006;12.436;2022-12-11T18:57:25;-4.00;99.90
5196;DHT22;2617;51.006;12.436;2022-12-11T19:02:26;-4.00;99.90
5196;DHT22;2617;51.006;12.436;2022-12-11T19:07:28;-4.00;99.90
5196;DHT22;2617;51.006;12.436;2022-12-11T19:12:30;-4.00;99.90
5196;DHT22;2617;51.006;12.436;2022-12-11T19:17:32;-4.00;99.90
5196;DHT22;2617;51.006;12.436;2022-12-11T19:22:33;-4.00;99.90
5196;DHT22;2617;51.006;12.436;2022-12-11T19:27:35;-4.00;99.90
5196;DHT22;2617;51.006;12.436;2022-12-11T19:32:37;-4.00;99.90
5196;DHT22;2617;51.006;12.436;2022-12-11T19:37:38;-4.00;99.90
5196;DHT22;2617;51.006;12.436;2022-12-11T19:42:41;-4.00;99.90
5196;DHT22;2617;51.006;12.436;2022-12-11T19:47:43;-4.00;99.90
5196;DHT22;2617;51.006;12.436;2022-12-11T19:52:45;-4.00;99.90
5196;DHT22;2617;51.006;12.436;2022-12-11T19:57:47;-4.00;99.90
5196;DHT22;2617;51.006;12.436;2022-12-11T20:02:49;-4.00;99.90
5196;DHT22;2617;51.006;12.436;2022-12-11T20:07:51;-4.00;99.90
5196;DHT22;2617;51.006;12.436;2022-12-11T20:12:53;-4.00;99.90
5196;DHT22;2617;51.006;12.436;2022-12-11T20:17:55;-4.00;99.90
5196;DHT22;2617;51.006;12.436;2022-12-11T20:22:58;-4.00;99.90
5196;DHT22;2617;51.006;12.436;2022-12-11T20:28:00;-4.00;99.90
5196;DHT22;2617;51.006;12.436;2022-12-11T20:33:02;-4.00;99.90
5196;DHT22;2617;51.006;12.436;2022-12-11T20:38:04;-4.00;99.90
5196;DHT22;2617;51.006;12.436;2022-12-11T20:43:06;-4.00;99.90
5196;DHT22;2617;51.006;12.436;2022-12-11T20:48:08;-4.00;99.90
5196;DHT22;2617;51.006;12.436;2022-12-11T20:53:10;-4.00;99.90
5196;DHT22;2617;51.006;12.436;2022-12-11T20:58:11;-4.00;99.90
5196;DHT22;2617;51.006;12.436;2022-12-11T21:03:14;-4.00;99.90
5196;DHT22;2617;51.006;12.436;2022-12-11T21:08:16;-4.00;99.90
5196;DHT22;2617;51.006;12.436;2022-12-11T21:13:19;-4.00;99.90
5196;DHT22;2617;51.006;12.436;2022-12-11T21:18:21;-4.00;99.90
5196;DHT22;2617;51.006;12.436;2022-12-11T21:23:24;-4.00;99.90
5196;DHT22;2617;51.006;12.436;2022-12-11T21:28:25;-4.00;99.90
5196;DHT22;2617;51.006;12.436;2022-12-11T21:33:27;-4.00;99.90
5196;DHT22;2617;51.006;12.436;2022-12-11T21:38:29;-4.00;99.90
5196;DHT22;2617;51.006;12.436;2022-12-11T21:43:31;-4.00;99.90
5196;DHT22;2617;51.006;12.436;2022-12-11T21:48:33;-4.00;99.90
5196;DHT22;2617;51.006;12.436;2022-12-11T21:53:35;-4.00;99.90
5196;DHT22;2617;51.006;12.436;2022-12-11T21:58:37;-4.00;99.90
5196;DHT22;2617;51.006;12.436;2022-12-11T22:03:38;-3.90;99.90
5196;DHT22;2617;51.006;12.436;2022-12-11T22:08:40;-4.00;99.90
5196;DHT22;2617;51.006;12.436;2022-12-11T22:13:41;-3.90;99.90
5196;DHT22;2617;51.006;12.436;2022-12-11T22:18:43;-3.90;99.90
5196;DHT22;2617;51.006;12.436;2022-12-11T22:23:45;-4.00;99.90
5196;DHT22;2617;51.006;12.436;2022-12-11T22:28:47;-4.00;99.90
5196;DHT22;2617;51.006;12.436;2022-12-11T22:33:49;-4.00;99.90
5196;DHT22;2617;51.006;12.436;2022-12-11T22:38:51;-4.00;99.90
5196;DHT22;2617;51.006;12.436;2022-12-11T22:43:52;-4.10;99.90
5196;DHT22;2617;51.006;12.436;2022-12-11T22:48:54;-4.00;99.90
5196;DHT22;2617;51.006;12.436;2022-12-11T22:53:57;-4.00;99.90
5196;DHT22;2617;51.006;12.436;2022-12-11T22:58:58;-4.00;99.90
5196;DHT22;2617;51.006;12.436;2022-12-11T23:04:00;-3.90;99.90
5196;DHT22;2617;51.006;12.436;2022-12-11T23:09:03;-3.90;99.90
5196;DHT22;2617;51.006;12.436;2022-12-11T23:14:05;-3.90;99.90
5196;DHT22;2617;51.006;12.436;2022-12-11T23:19:06;-3.90;99.90
5196;DHT22;2617;51.006;12.436;2022-12-11T23:24:08;-3.90;99.90
5196;DHT22;2617;51.006;12.436;2022-12-11T23:29:10;-3.90;99.90
5196;DHT22;2617;51.006;12.436;2022-12-11T23:34:11;-3.90;99.90
5196;DHT22;2617;51.006;12.436;2022-12-11T23:39:13;-3.80;99.90
5196;DHT22;2617;51.006;12.436;2022-12-11T23:44:15;-3.80;99.90
5196;DHT22;2617;51.006;12.436;2022-12-11T23:49:18;-3.80;99.90
5196;DHT22;2617;51.006;12.436;2022-12-11T23:54:20;-3.70;99.90
5196;DHT22;2617;51.006;12.436;2022-12-11T23:59:22;-3.70;99.90
